Time;durP1;ratioP1;P1;durP2;ratioP2;P2;SDS_P1;SDS_P2;PMS_P1;PMS_P2;Temp;Humidity;BMP_temperature;BMP_pressure;BME280_temperature;BME280_humidity;BME280_pressure;Samples;Min_cycle;Max_cycle;Signal;HPM_P1;HPM_P2
2021/11/17 02:26:39;;;;;;;9.53;6.90;;;12.10;52.90;;;;;;6127479;23;20385;-88
2021/11/17 02:29:20;;;;;;;10.80;7.47;;;12.30;53.30;;;;;;6127446;23;20517;-88
2021/11/17 02:32:14;;;;;;;12.77;7.23;;;12.40;52.90;;;;;;6126505;23;20388;-88
2021/11/17 02:35:05;;;;;;;9.63;6.17;;;12.50;53.50;;;;;;6127024;23;20404;-88
2021/11/17 02:37:46;;;;;;;15.17;8.10;;;12.60;52.40;;;;;;6128179;23;20394;-89
2021/11/17 02:40:38;;;;;;;9.10;5.87;;;13.00;52.30;;;;;;6128284;23;20482;-89
2021/11/17 02:43:21;;;;;;;8.40;5.50;;;13.00;52.30;;;;;;6128069;23;20380;-88
2021/11/17 02:46:04;;;;;;;8.93;6.20;;;13.30;52.60;;;;;;6127475;23;20471;-88
2021/11/17 02:48:50;;;;;;;11.63;7.53;;;13.50;52.80;;;;;;6127737;23;20472;-88
2021/11/17 02:51:33;;;;;;;13.37;8.70;;;13.20;49.50;;;;;;6127794;23;20388;-88
2021/11/17 02:54:33;;;;;;;14.10;7.87;;;12.90;48.40;;;;;;6127066;23;20419;-88
2021/11/17 02:57:23;;;;;;;14.83;7.80;;;12.60;49.80;;;;;;6119550;23;20422;-87
2021/11/17 03:00:02;;;;;;;10.13;7.10;;;12.50;51.80;;;;;;6126319;23;20452;-86
2021/11/17 03:02:47;;;;;;;9.70;6.93;;;12.70;50.50;;;;;;6127507;23;20849;-88
2021/11/17 03:05:33;;;;;;;10.57;6.83;;;12.30;50.30;;;;;;6133638;23;20399;-87
2021/11/17 03:08:14;;;;;;;14.40;6.80;;;12.10;52.00;;;;;;6141402;23;20378;-87
2021/11/17 03:11:09;;;;;;;11.43;6.90;;;11.80;51.20;;;;;;6132795;23;20449;-88
2021/11/17 03:13:52;;;;;;;13.57;7.37;;;12.40;51.70;;;;;;6132712;23;20388;-88
2021/11/17 03:16:38;;;;;;;10.20;6.83;;;12.30;52.30;;;;;;6132967;23;20409;-88
2021/11/17 03:19:20;;;;;;;10.23;7.30;;;12.30;51.60;;;;;;6131365;23;20416;-88
2021/11/17 03:22:07;;;;;;;10.80;6.67;;;12.00;51.00;;;;;;6133392;23;20397;-87
2021/11/17 03:24:58;;;;;;;11.90;7.10;;;12.00;52.10;;;;;;6135977;23;20420;-87
2021/11/17 03:27:39;;;;;;;16.00;7.97;;;12.10;51.40;;;;;;6141231;23;20412;-89
2021/11/17 03:30:30;;;;;;;9.10;6.67;;;11.80;52.00;;;;;;6135851;23;20451;-88
2021/11/17 03:33:22;;;;;;;9.67;6.27;;;11.70;53.60;;;;;;6143696;23;20404;-87
2021/11/17 03:36:06;;;;;;;10.47;6.80;;;11.70;52.90;;;;;;6145697;23;20379;-87
2021/11/17 03:39:07;;;;;;;10.13;6.50;;;11.50;52.00;;;;;;6144793;23;20387;-88
2021/11/17 03:41:53;;;;;;;11.13;7.03;;;11.50;53.70;;;;;;6138014;23;20407;-88
2021/11/17 03:44:51;;;;;;;12.70;8.00;;;11.20;53.80;;;;;;6154135;23;20379;-86
2021/11/17 03:47:30;;;;;;;13.27;7.47;;;11.20;56.00;;;;;;6113240;23;20923;-88
2021/11/17 03:50:20;;;;;;;9.90;6.90;;;11.20;53.70;;;;;;6129365;23;20481;-87
2021/11/17 03:52:59;;;;;;;10.00;7.17;;;11.50;54.60;;;;;;6128987;23;20927;-87
2021/11/17 03:55:59;;;;;;;12.33;8.07;;;11.30;53.10;;;;;;6130127;23;20421;-87
2021/11/17 03:58:38;;;;;;;11.90;7.07;;;10.80;54.70;;;;;;6109668;23;20791;-87
2021/11/17 04:01:37;;;;;;;12.87;7.67;;;10.50;55.30;;;;;;6130774;23;20434;-88
2021/11/17 04:04:20;;;;;;;18.50;7.63;;;10.60;55.50;;;;;;6131491;23;20868;-88
2021/11/17 04:06:59;;;;;;;10.97;7.47;;;10.90;55.60;;;;;;6129691;23;20844;-88
2021/11/17 04:09:42;;;;;;;21.07;7.87;;;11.10;55.40;;;;;;6131267;23;20447;-88
2021/11/17 04:12:27;;;;;;;12.20;8.10;;;11.20;54.60;;;;;;6129781;23;20387;-88
2021/11/17 04:15:06;;;;;;;11.30;7.87;;;11.40;55.20;;;;;;6128511;23;20855;-88
2021/11/17 04:17:46;;;;;;;14.80;7.93;;;11.40;53.40;;;;;;6127674;23;20485;-88
2021/11/17 04:20:28;;;;;;;9.10;6.23;;;11.40;53.30;;;;;;6127860;23;20517;-88
2021/11/17 04:23:08;;;;;;;17.00;8.00;;;11.60;56.40;;;;;;6127891;23;20392;-88
2021/11/17 04:25:57;;;;;;;11.00;6.93;;;11.70;53.00;;;;;;6128061;23;20440;-88
2021/11/17 04:28:39;;;;;;;16.77;9.20;;;11.30;54.60;;;;;;6130667;23;20848;-88
2021/11/17 04:31:33;;;;;;;10.73;7.50;;;10.90;54.20;;;;;;6131393;23;20449;-88
2021/11/17 04:34:27;;;;;;;14.00;7.97;;;10.80;55.70;;;;;;6130361;23;20705;-88
2021/11/17 04:37:08;;;;;;;16.10;8.93;;;10.50;55.30;;;;;;6128126;23;20416;-88
2021/11/17 04:40:03;;;;;;;13.17;8.30;;;10.50;55.20;;;;;;6131114;23;20480;-87
2021/11/17 04:42:58;;;;;;;12.80;8.07;;;10.60;56.00;;;;;;6133316;23;20405;-87
2021/11/17 04:45:40;;;;;;;12.63;8.00;;;10.90;55.60;;;;;;6134062;23;20408;-87
2021/11/17 04:48:21;;;;;;;11.10;7.37;;;11.10;53.70;;;;;;6128987;23;20416;-88
2021/11/17 04:51:18;;;;;;;10.90;6.80;;;11.20;54.10;;;;;;6129111;23;20534;-87
2021/11/17 04:54:09;;;;;;;12.40;7.13;;;11.10;53.50;;;;;;6130065;23;20381;-88
2021/11/17 04:56:54;;;;;;;11.03;7.50;;;11.00;57.90;;;;;;6129899;23;20415;-88
2021/11/17 04:59:43;;;;;;;10.00;7.10;;;11.10;53.70;;;;;;6130009;23;20550;-88
2021/11/17 05:02:23;;;;;;;11.00;7.23;;;11.40;55.60;;;;;;6130506;23;20871;-88
2021/11/17 05:05:12;;;;;;;10.37;7.07;;;11.40;53.30;;;;;;6130282;23;20402;-87
2021/11/17 05:07:49;;;;;;;13.00;6.67;;;11.40;52.90;;;;;;6134072;23;20415;-87
2021/11/17 05:10:28;;;;;;;15.90;8.40;;;11.30;53.20;;;;;;6130098;23;20591;-86
2021/11/17 05:13:06;;;;;;;9.40;6.40;;;11.20;53.80;;;;;;6129759;23;20392;-87
2021/11/17 05:15:50;;;;;;;7.87;6.03;;;11.60;53.30;;;;;;6129936;23;20372;-88
2021/11/17 05:18:25;;;;;;;10.00;6.40;;;11.50;53.10;;;;;;6127818;23;20416;-88
2021/11/17 05:21:08;;;;;;;11.53;6.20;;;11.50;53.50;;;;;;6128300;23;20434;-87
2021/11/17 05:23:50;;;;;;;8.80;6.03;;;11.40;51.10;;;;;;6130109;23;20396;-88
2021/11/17 05:26:29;;;;;;;10.60;5.97;;;11.50;52.80;;;;;;6131593;23;20377;-87
2021/11/17 05:29:13;;;;;;;12.07;6.37;;;11.50;54.20;;;;;;6131174;23;20383;-86
2021/11/17 05:31:55;;;;;;;7.73;5.40;;;11.50;52.00;;;;;;6130637;23;20725;-88
2021/11/17 05:34:49;;;;;;;9.97;5.73;;;11.60;51.00;;;;;;6129573;23;20846;-87
2021/11/17 05:37:25;;;;;;;11.00;6.00;;;11.40;50.80;;;;;;6127076;23;20426;-87
2021/11/17 05:40:10;;;;;;;6.20;4.70;;;11.70;53.50;;;;;;6131624;23;20495;-86
2021/11/17 05:42:51;;;;;;;8.50;5.73;;;12.00;52.10;;;;;;6128803;23;20373;-87
2021/11/17 05:45:32;;;;;;;9.27;5.80;;;11.90;50.70;;;;;;6133787;23;20401;-88
2021/11/17 05:48:10;;;;;;;8.93;5.40;;;12.00;51.80;;;;;;6133751;23;20404;-87
2021/11/17 05:50:51;;;;;;;7.87;5.00;;;12.00;50.90;;;;;;6136414;23;20443;-87
2021/11/17 05:53:38;;;;;;;7.30;5.50;;;12.00;52.70;;;;;;6132543;23;20398;-88
2021/11/17 05:56:28;;;;;;;9.57;6.00;;;12.20;51.60;;;;;;6129170;23;20410;-88
2021/11/17 05:59:10;;;;;;;6.97;4.83;;;12.20;50.90;;;;;;6144578;23;20400;-87
2021/11/17 06:01:48;;;;;;;9.63;5.70;;;12.30;51.60;;;;;;6146483;23;20414;-87
2021/11/17 06:04:14;;;;;;;10.07;5.70;;;12.10;51.50;;;;;;6141431;23;20919;-88
2021/11/17 06:06:41;;;;;;;8.03;5.50;;;12.20;52.60;;;;;;6140390;23;20898;-88
2021/11/17 06:09:08;;;;;;;7.87;5.37;;;11.80;52.00;;;;;;6142615;23;20475;-90
2021/11/17 06:11:39;;;;;;;9.30;6.47;;;11.90;52.40;;;;;;6138433;23;20436;-88
2021/11/17 06:14:09;;;;;;;9.13;6.17;;;11.80;51.20;;;;;;6142839;23;20389;-89
2021/11/17 06:16:41;;;;;;;6.87;5.57;;;11.70;51.40;;;;;;6144647;23;20407;-89
2021/11/17 06:19:09;;;;;;;6.80;5.13;;;11.60;52.30;;;;;;6137509;23;20423;-89
2021/11/17 06:21:39;;;;;;;9.20;6.20;;;11.80;55.50;;;;;;6136643;23;20408;-89
2021/11/17 06:24:08;;;;;;;11.20;6.60;;;11.70;51.10;;;;;;6135139;23;20444;-88
2021/11/17 06:26:39;;;;;;;8.63;5.77;;;11.90;51.60;;;;;;6137187;23;20890;-88
2021/11/17 06:29:11;;;;;;;11.20;6.93;;;12.10;52.10;;;;;;6142417;23;20412;-88
2021/11/17 06:31:41;;;;;;;9.17;5.80;;;12.20;51.60;;;;;;6135791;23;20621;-89
2021/11/17 06:34:28;;;;;;;10.33;6.50;;;12.10;51.50;;;;;;6132898;23;20442;-88
2021/11/17 06:36:56;;;;;;;7.23;5.67;;;11.40;50.90;;;;;;6134843;23;20400;-87
2021/11/17 06:39:23;;;;;;;11.87;7.10;;;11.20;53.50;;;;;;6136489;23;20495;-87
2021/11/17 06:41:52;;;;;;;9.10;6.30;;;11.30;54.10;;;;;;6135241;23;20897;-88
2021/11/17 06:44:19;;;;;;;10.23;6.70;;;11.50;53.80;;;;;;6134874;23;20472;-88
2021/11/17 06:46:46;;;;;;;15.30;7.73;;;11.50;54.60;;;;;;6133024;23;20416;-87
2021/11/17 06:49:13;;;;;;;11.90;6.63;;;11.50;52.80;;;;;;6140431;23;20419;-87
2021/11/17 06:51:40;;;;;;;16.97;9.70;;;11.50;54.40;;;;;;6138735;23;20943;-86
2021/11/17 06:54:07;;;;;;;22.93;11.27;;;12.00;54.20;;;;;;6140183;23;20412;-88
2021/11/17 06:56:34;;;;;;;16.27;8.27;;;12.10;52.80;;;;;;6141034;23;20427;-88
2021/11/17 06:59:03;;;;;;;10.67;7.53;;;12.10;50.70;;;;;;6140213;23;20415;-87
2021/11/17 07:01:30;;;;;;;11.23;6.53;;;11.80;51.20;;;;;;6142262;23;20412;-88
2021/11/17 07:03:58;;;;;;;12.63;6.90;;;11.40;51.70;;;;;;6132512;23;20408;-89
2021/11/17 07:06:26;;;;;;;11.30;6.60;;;11.50;53.60;;;;;;6129957;23;20422;-88
2021/11/17 07:08:54;;;;;;;10.47;6.73;;;11.40;54.20;;;;;;6131948;23;20406;-88
2021/11/17 07:11:21;;;;;;;11.90;6.90;;;11.10;53.00;;;;;;6132118;23;20431;-88
2021/11/17 07:13:48;;;;;;;9.43;6.40;;;10.70;54.10;;;;;;6131636;23;20468;-88
2021/11/17 07:16:17;;;;;;;11.37;7.40;;;10.80;54.70;;;;;;6130684;23;20408;-90
2021/11/17 07:18:44;;;;;;;9.40;6.37;;;10.80;55.90;;;;;;6130422;23;20790;-88
2021/11/17 07:21:11;;;;;;;10.60;6.63;;;10.60;55.80;;;;;;6131204;23;20438;-89
2021/11/17 07:23:38;;;;;;;11.70;7.00;;;10.60;55.30;;;;;;6130198;23;20929;-88
2021/11/17 07:26:05;;;;;;;11.87;7.63;;;10.40;54.30;;;;;;6130800;23;20438;-89
2021/11/17 07:28:32;;;;;;;9.83;6.70;;;10.00;55.30;;;;;;6130387;23;20392;-88
2021/11/17 07:31:00;;;;;;;9.30;7.40;;;10.40;56.80;;;;;;6135436;23;20451;-88
2021/11/17 07:33:28;;;;;;;14.93;7.80;;;10.70;55.50;;;;;;6134257;23;20446;-88
2021/11/17 07:35:56;;;;;;;9.40;6.83;;;10.70;55.50;;;;;;6130318;23;20425;-88
2021/11/17 07:38:25;;;;;;;11.37;7.23;;;10.70;55.90;;;;;;6132415;23;20439;-88
2021/11/17 07:40:53;;;;;;;10.87;7.37;;;10.70;55.30;;;;;;6130763;23;20752;-87
2021/11/17 07:43:22;;;;;;;10.20;7.10;;;10.90;55.90;;;;;;6130866;23;20404;-88
2021/11/17 07:45:49;;;;;;;12.73;8.10;;;11.30;55.10;;;;;;6129840;23;20472;-88
2021/11/17 07:48:20;;;;;;;10.90;6.57;;;11.20;51.60;;;;;;6134831;23;20430;-88
2021/11/17 07:50:49;;;;;;;12.10;7.13;;;11.10;53.30;;;;;;6129731;23;20993;-87
2021/11/17 07:53:19;;;;;;;12.83;7.70;;;10.90;52.20;;;;;;6130708;23;20464;-87
2021/11/17 07:55:49;;;;;;;10.77;5.93;;;11.00;52.50;;;;;;6130403;23;20397;-87
2021/11/17 07:58:16;;;;;;;17.10;7.50;;;11.60;52.90;;;;;;6130446;23;20483;-86
2021/11/17 08:00:48;;;;;;;11.53;6.40;;;12.00;53.10;;;;;;6129471;23;20434;-86
2021/11/17 08:03:17;;;;;;;14.30;7.83;;;12.10;50.20;;;;;;6128615;23;20952;-86
2021/11/17 08:05:46;;;;;;;12.20;6.83;;;12.10;49.70;;;;;;6128590;23;20417;-86
2021/11/17 08:08:15;;;;;;;10.07;6.80;;;12.10;51.50;;;;;;6129175;23;20416;-86
2021/11/17 08:10:43;;;;;;;10.60;6.63;;;12.30;50.70;;;;;;6128662;23;20475;-85
2021/11/17 08:13:10;;;;;;;11.63;6.90;;;12.60;50.50;;;;;;6129941;23;20405;-85
2021/11/17 08:15:38;;;;;;;9.63;6.33;;;12.70;49.40;;;;;;6131244;23;20403;-85
2021/11/17 08:18:05;;;;;;;8.97;6.20;;;13.00;52.30;;;;;;6129627;23;20483;-85
2021/11/17 08:20:32;;;;;;;9.77;6.20;;;13.20;50.90;;;;;;6130660;23;20950;-86
2021/11/17 08:22:59;;;;;;;11.23;6.20;;;13.20;49.40;;;;;;6130894;23;20408;-85
2021/11/17 08:25:31;;;;;;;10.47;6.90;;;13.30;49.30;;;;;;6130670;23;20462;-85
2021/11/17 08:27:58;;;;;;;10.87;7.50;;;13.10;48.00;;;;;;6129402;23;20393;-85
2021/11/17 08:30:27;;;;;;;12.13;6.40;;;13.20;48.30;;;;;;6128480;23;20428;-86
2021/11/17 08:32:55;;;;;;;14.33;6.27;;;13.20;48.70;;;;;;6130432;23;20903;-85
2021/11/17 08:35:25;;;;;;;9.83;6.70;;;13.00;46.60;;;;;;6129731;23;20418;-85
2021/11/17 08:37:54;;;;;;;9.23;6.67;;;13.00;47.80;;;;;;6128892;23;20414;-84
2021/11/17 08:40:25;;;;;;;10.20;6.43;;;12.90;49.80;;;;;;6130704;23;20434;-85
2021/11/17 08:42:54;;;;;;;16.13;6.67;;;12.90;48.40;;;;;;6143085;23;20407;-84
2021/11/17 08:45:21;;;;;;;9.90;6.73;;;13.30;51.60;;;;;;6139597;23;20465;-84
2021/11/17 08:47:50;;;;;;;10.93;6.40;;;13.20;48.00;;;;;;6133594;23;20403;-85
2021/11/17 08:50:20;;;;;;;9.10;6.70;;;13.30;47.70;;;;;;6153470;23;20426;-86
2021/11/17 08:52:47;;;;;;;8.83;6.40;;;13.00;47.80;;;;;;6153750;23;20439;-86
2021/11/17 08:55:15;;;;;;;11.70;6.53;;;12.90;48.20;;;;;;6153508;23;20395;-86
2021/11/17 08:57:43;;;;;;;10.00;6.87;;;13.00;52.30;;;;;;6132580;23;20883;-87
2021/11/17 09:00:15;;;;;;;13.60;6.57;;;13.00;50.20;;;;;;6129848;23;20435;-87
2021/11/17 09:02:43;;;;;;;9.53;6.10;;;13.40;48.80;;;;;;6126986;23;20388;-87
2021/11/17 09:05:13;;;;;;;8.50;5.60;;;13.20;49.30;;;;;;6130522;23;20443;-87
2021/11/17 09:07:41;;;;;;;7.73;5.10;;;13.20;49.60;;;;;;6130341;23;20496;-87
2021/11/17 09:10:10;;;;;;;9.27;5.70;;;12.90;47.70;;;;;;6127471;23;20436;-87
2021/11/17 09:12:37;;;;;;;14.13;5.27;;;13.00;50.10;;;;;;6128064;23;20565;-87
2021/11/17 09:15:06;;;;;;;8.23;5.23;;;13.40;47.80;;;;;;6128867;23;20422;-87
2021/11/17 09:17:34;;;;;;;5.63;4.53;;;13.20;45.50;;;;;;6129873;23;20410;-88
2021/11/17 09:20:01;;;;;;;8.60;4.90;;;13.00;50.50;;;;;;6127948;23;20416;-87
2021/11/17 09:22:28;;;;;;;6.90;5.03;;;13.10;47.10;;;;;;6127374;23;20411;-87
2021/11/17 09:24:55;;;;;;;5.30;4.57;;;13.30;48.90;;;;;;6128791;23;20689;-87
2021/11/17 09:27:22;;;;;;;6.23;4.70;;;13.20;47.30;;;;;;6129024;23;20411;-87
2021/11/17 09:29:49;;;;;;;7.57;5.17;;;13.10;45.70;;;;;;6129176;23;20507;-87
2021/11/17 09:32:15;;;;;;;6.77;4.80;;;13.30;48.40;;;;;;6128212;23;20521;-87
2021/11/17 09:34:44;;;;;;;7.10;4.87;;;13.20;46.20;;;;;;6129069;23;20904;-87
2021/11/17 09:37:11;;;;;;;8.20;5.30;;;13.10;46.10;;;;;;6129169;23;20400;-87
2021/11/17 09:39:42;;;;;;;8.70;5.30;;;13.20;46.80;;;;;;6128678;23;20506;-86
2021/11/17 09:42:10;;;;;;;6.23;5.00;;;13.50;48.10;;;;;;6129825;23;20407;-87
2021/11/17 09:44:40;;;;;;;9.13;5.50;;;13.30;46.60;;;;;;6128807;23;20422;-88
2021/11/17 09:47:12;;;;;;;10.93;5.23;;;13.40;45.80;;;;;;6129836;23;20494;-87
2021/11/17 09:49:46;;;;;;;9.23;5.50;;;13.40;46.10;;;;;;6129368;23;20498;-88
2021/11/17 09:52:16;;;;;;;7.40;5.10;;;13.40;45.50;;;;;;6129764;23;20927;-88
2021/11/17 09:54:46;;;;;;;8.50;5.10;;;13.50;48.50;;;;;;6129613;23;20414;-89
2021/11/17 09:57:19;;;;;;;10.53;5.60;;;13.50;44.80;;;;;;6130665;23;20419;-87
2021/11/17 09:59:49;;;;;;;7.50;4.43;;;13.60;45.80;;;;;;6137423;23;20427;-87
2021/11/17 10:02:24;;;;;;;7.80;5.00;;;13.70;50.40;;;;;;6133158;23;20967;-87
2021/11/17 10:04:59;;;;;;;9.00;5.63;;;13.60;48.80;;;;;;6130433;23;20375;-87
2021/11/17 10:08:07;;;;;;;7.03;4.80;;;13.60;44.50;;;;;;6129801;23;20384;-87
2021/11/17 10:13:26;;;;;;;8.93;4.60;;;13.40;46.10;;;;;;6129141;23;20392;-88
2021/11/17 10:15:55;;;;;;;6.90;4.53;;;13.10;47.40;;;;;;6128573;23;20388;-88
2021/11/17 10:18:38;;;;;;;10.10;5.20;;;12.50;47.80;;;;;;6129686;23;20422;-87
2021/11/17 10:21:11;;;;;;;7.60;5.20;;;12.50;50.90;;;;;;6129351;23;20989;-87
2021/11/17 10:23:56;;;;;;;7.50;4.67;;;12.40;48.60;;;;;;6128511;23;20399;-87
2021/11/17 10:26:23;;;;;;;7.33;4.83;;;13.00;47.90;;;;;;6130815;23;20404;-87
2021/11/17 10:28:57;;;;;;;8.10;5.50;;;12.50;47.00;;;;;;6129651;23;20438;-88
2021/11/17 10:31:27;;;;;;;22.80;11.27;;;12.40;47.00;;;;;;6130789;23;20427;-87
2021/11/17 10:34:12;;;;;;;11.57;5.90;;;12.90;51.60;;;;;;6130547;23;20392;-87
2021/11/17 10:36:52;;;;;;;4.60;3.80;;;13.10;46.50;;;;;;6129904;23;20383;-87
2021/11/17 10:39:31;;;;;;;8.17;5.20;;;13.30;48.80;;;;;;6131646;23;20458;-87
2021/11/17 10:42:05;;;;;;;5.83;4.20;;;13.50;47.20;;;;;;6131331;23;20745;-87
2021/11/17 10:44:52;;;;;;;11.50;4.50;;;13.40;51.00;;;;;;6131034;23;20492;-87
2021/11/17 10:47:32;;;;;;;5.80;3.90;;;13.60;46.50;;;;;;6130761;23;20438;-87
2021/11/17 10:50:18;;;;;;;7.37;5.60;;;13.70;50.50;;;;;;6130229;23;20427;-86
2021/11/17 10:53:00;;;;;;;8.73;5.77;;;13.40;44.90;;;;;;6135314;23;20503;-88
2021/11/17 10:55:31;;;;;;;7.70;4.90;;;13.40;44.80;;;;;;6135666;23;20411;-88
2021/11/17 10:57:58;;;;;;;9.40;4.53;;;13.20;46.10;;;;;;6136699;23;20434;-87
2021/11/17 11:00:31;;;;;;;11.40;6.57;;;13.30;49.30;;;;;;6135165;23;20439;-88
2021/11/17 11:03:00;;;;;;;8.50;5.10;;;13.20;47.90;;;;;;6133481;23;20395;-87
2021/11/17 11:05:31;;;;;;;6.03;4.57;;;13.10;45.40;;;;;;6135724;23;20396;-88
2021/11/17 11:08:03;;;;;;;32.13;8.00;;;13.10;50.10;;;;;;6134920;23;20403;-87
2021/11/17 11:10:34;;;;;;;8.00;4.73;;;13.00;47.50;;;;;;6133116;23;20468;-87
2021/11/17 11:13:03;;;;;;;7.10;4.80;;;12.60;46.50;;;;;;6134777;23;20466;-88
2021/11/17 11:15:36;;;;;;;4.27;3.37;;;12.70;47.50;;;;;;6134372;23;20408;-88
2021/11/17 11:18:27;;;;;;;68.50;8.90;;;12.70;50.60;;;;;;6133311;23;20419;-87
2021/11/17 11:20:56;;;;;;;6.47;3.53;;;12.70;46.30;;;;;;6132780;23;20543;-87
2021/11/17 11:23:28;;;;;;;4.60;3.77;;;12.90;46.10;;;;;;6132375;23;20677;-88
2021/11/17 11:26:06;;;;;;;5.40;3.50;;;13.00;46.70;;;;;;6133707;23;20394;-87
2021/11/17 11:28:37;;;;;;;8.30;3.47;;;12.80;45.10;;;;;;6131753;23;20415;-87
2021/11/17 11:31:37;;;;;;;16.90;4.30;;;13.00;49.20;;;;;;6131152;23;20503;-87
2021/11/17 11:34:45;;;;;;;58.17;6.57;;;13.80;53.00;;;;;;6131351;23;20430;-87
2021/11/17 11:37:29;;;;;;;36.63;6.10;;;13.50;43.90;;;;;;6131416;23;20750;-87
2021/11/17 11:40:01;;;;;;;22.20;5.30;;;12.80;47.60;;;;;;6129619;23;20427;-87
2021/11/17 11:43:04;;;;;;;30.07;6.27;;;12.80;45.40;;;;;;6130817;23;20865;-87
2021/11/17 11:45:46;;;;;;;17.67;5.00;;;12.80;47.10;;;;;;6129706;23;21000;-87
2021/11/17 11:48:53;;;;;;;19.43;5.40;;;13.00;45.30;;;;;;6136475;23;20377;-87
2021/11/17 11:51:57;;;;;;;203.93;22.93;;;12.80;45.90;;;;;;6133541;23;20466;-87
2021/11/17 11:54:29;;;;;;;23.50;5.37;;;12.80;49.00;;;;;;6132660;23;20403;-87
2021/11/17 11:57:22;;;;;;;12.63;4.80;;;13.00;48.20;;;;;;6128556;23;20375;-85
2021/11/17 11:59:53;;;;;;;13.30;6.20;;;13.30;46.70;;;;;;6134948;23;20477;-87
2021/11/17 12:02:22;;;;;;;8.67;4.83;;;12.90;45.80;;;;;;6129587;23;20416;-88
2021/11/17 12:04:54;;;;;;;16.17;9.67;;;12.50;46.80;;;;;;6130285;23;20743;-87
2021/11/17 12:07:25;;;;;;;16.27;7.63;;;12.60;47.40;;;;;;6133030;23;20391;-87
2021/11/17 12:09:57;;;;;;;24.50;11.70;;;12.50;48.20;;;;;;6128111;23;20931;-87
2021/11/17 12:12:29;;;;;;;15.00;6.37;;;12.80;46.80;;;;;;6127475;23;20431;-87
2021/11/17 12:15:14;;;;;;;30.30;12.50;;;12.80;50.50;;;;;;6127612;23;20467;-87
2021/11/17 12:17:42;;;;;;;17.70;8.70;;;12.70;48.10;;;;;;6127847;23;20396;-87
2021/11/17 12:20:23;;;;;;;10.37;5.43;;;13.00;47.30;;;;;;6127451;23;20926;-87
2021/11/17 12:22:54;;;;;;;54.80;7.67;;;13.20;46.30;;;;;;6128163;23;20391;-87
2021/11/17 12:25:24;;;;;;;9.63;4.00;;;13.10;48.10;;;;;;6127689;23;20450;-87
2021/11/17 12:27:58;;;;;;;47.63;6.80;;;13.20;49.00;;;;;;6129674;23;20895;-86
2021/11/17 12:30:40;;;;;;;6.23;3.90;;;13.20;44.30;;;;;;6127492;23;20439;-86
2021/11/17 12:33:19;;;;;;;7.17;3.80;;;12.90;45.70;;;;;;6128743;23;20946;-86
2021/11/17 12:35:59;;;;;;;7.33;3.97;;;13.10;48.80;;;;;;6128962;23;20391;-86
2021/11/17 12:38:28;;;;;;;4.30;3.70;;;13.20;45.90;;;;;;6128273;23;20372;-87
2021/11/17 12:40:59;;;;;;;5.43;4.00;;;13.40;44.40;;;;;;6127721;23;20428;-87
2021/11/17 12:43:33;;;;;;;6.13;4.47;;;13.40;47.00;;;;;;6127756;23;20471;-86
2021/11/17 12:46:07;;;;;;;5.23;3.83;;;13.20;46.90;;;;;;6128070;23;20456;-86
2021/11/17 12:48:37;;;;;;;6.93;4.20;;;12.90;48.90;;;;;;6127451;23;20395;-86
2021/11/17 12:51:09;;;;;;;4.77;3.90;;;13.00;45.30;;;;;;6127230;23;20493;-87
2021/11/17 12:53:40;;;;;;;6.23;4.60;;;13.10;49.40;;;;;;6127415;23;20490;-88
2021/11/17 12:56:15;;;;;;;4.87;4.03;;;13.40;45.90;;;;;;6128013;23;20396;-87
2021/11/17 12:58:51;;;;;;;7.33;4.20;;;13.40;45.50;;;;;;6128044;23;20387;-87
2021/11/17 13:01:35;;;;;;;6.53;3.83;;;13.10;44.90;;;;;;6127863;23;20387;-87
2021/11/17 13:04:07;;;;;;;10.93;3.83;;;13.00;45.30;;;;;;6128621;23;20439;-87
2021/11/17 13:06:47;;;;;;;69.17;8.50;;;13.00;48.40;;;;;;6128386;23;20880;-87
2021/11/17 13:09:16;;;;;;;24.93;5.50;;;13.10;48.90;;;;;;6127894;23;20430;-87
2021/11/17 13:12:07;;;;;;;5.20;3.43;;;12.70;45.50;;;;;;6128071;23;20467;-87
2021/11/17 13:14:38;;;;;;;8.60;3.53;;;12.60;47.60;;;;;;6127748;23;20510;-86
2021/11/17 13:17:09;;;;;;;45.93;7.20;;;12.70;48.70;;;;;;6128317;23;20394;-86
2021/11/17 13:19:39;;;;;;;36.43;8.43;;;12.80;46.90;;;;;;6128668;23;20451;-87
2021/11/17 13:22:21;;;;;;;8.50;3.80;;;13.50;47.90;;;;;;6128561;23;20781;-86
2021/11/17 13:24:52;;;;;;;4.97;3.23;;;13.10;42.30;;;;;;6127847;23;20875;-86
2021/11/17 13:27:41;;;;;;;44.80;5.60;;;13.10;46.80;;;;;;6127699;23;20396;-86
2021/11/17 13:30:22;;;;;;;15.50;5.23;;;12.80;44.80;;;;;;6127400;23;20486;-86
2021/11/17 13:32:53;;;;;;;5.83;3.80;;;12.90;44.90;;;;;;6142399;23;20437;-86
2021/11/17 13:35:30;;;;;;;4.80;3.97;;;13.40;48.80;;;;;;6135013;23;20411;-87
2021/11/17 13:38:18;;;;;;;5.50;4.10;;;13.50;43.20;;;;;;6128349;23;20419;-88
2021/11/17 13:40:47;;;;;;;6.13;3.30;;;13.40;45.70;;;;;;6130109;23;20442;-88
2021/11/17 13:43:15;;;;;;;5.10;3.90;;;13.60;47.80;;;;;;6128786;23;20404;-87
2021/11/17 13:45:45;;;;;;;4.40;3.80;;;13.30;43.20;;;;;;6127231;23;20431;-87
2021/11/17 13:48:12;;;;;;;9.30;4.17;;;12.70;45.00;;;;;;6127575;23;20404;-86
2021/11/17 13:50:41;;;;;;;10.87;4.40;;;12.50;44.80;;;;;;6129537;23;20490;-89
2021/11/17 13:53:11;;;;;;;37.80;5.93;;;12.80;47.70;;;;;;6131309;23;20490;-89
2021/11/17 13:55:41;;;;;;;4.33;4.00;;;13.10;45.40;;;;;;6129915;23;20399;-89
2021/11/17 13:58:09;;;;;;;10.50;3.50;;;13.00;44.00;;;;;;6131619;23;20403;-89
2021/11/17 14:00:41;;;;;;;7.60;4.23;;;12.60;50.50;;;;;;6143801;23;20411;-89
2021/11/17 14:03:10;;;;;;;42.93;8.07;;;12.80;45.30;;;;;;6149271;23;20427;-88
2021/11/17 14:05:46;;;;;;;236.90;21.00;;;12.90;47.20;;;;;;6133690;23;20523;-89
2021/11/17 14:08:14;;;;;;;52.07;6.10;;;13.20;46.00;;;;;;6132311;23;20415;-89
2021/11/17 14:10:41;;;;;;;65.37;8.03;;;13.20;42.80;;;;;;6132539;23;20412;-89
2021/11/17 14:13:09;;;;;;;65.13;9.33;;;13.20;46.20;;;;;;6129900;23;20929;-87
2021/11/17 14:15:37;;;;;;;24.07;5.07;;;13.10;45.60;;;;;;6127654;23;20439;-87
2021/11/17 14:18:06;;;;;;;8.10;4.07;;;13.20;47.00;;;;;;6128275;23;20415;-87
2021/11/17 14:20:35;;;;;;;41.07;6.33;;;13.40;43.70;;;;;;6133913;23;20455;-87
2021/11/17 14:23:02;;;;;;;199.53;20.97;;;13.60;47.30;;;;;;6136242;23;20387;-87
2021/11/17 14:25:29;;;;;;;10.10;5.20;;;13.40;44.70;;;;;;6140467;23;20404;-86
2021/11/17 14:28:00;;;;;;;33.17;8.20;;;13.30;45.50;;;;;;6135483;23;20418;-87
2021/11/17 14:30:31;;;;;;;32.30;6.13;;;13.40;45.30;;;;;;6129522;23;20412;-87
2021/11/17 14:32:58;;;;;;;140.60;35.23;;;12.80;43.60;;;;;;6129419;23;20503;-87
2021/11/17 14:35:28;;;;;;;36.13;10.47;;;12.70;47.10;;;;;;6130104;23;20428;-87
2021/11/17 14:37:57;;;;;;;87.43;10.90;;;12.70;43.40;;;;;;6141351;23;20450;-87
2021/11/17 14:40:25;;;;;;;38.90;15.73;;;12.40;43.80;;;;;;6152755;23;20460;-85
2021/11/17 14:42:52;;;;;;;21.33;13.37;;;12.30;45.00;;;;;;6152706;23;20379;-86
2021/11/17 14:45:22;;;;;;;21.57;14.00;;;12.20;44.10;;;;;;6145915;23;20411;-88
2021/11/17 14:47:49;;;;;;;19.90;9.50;;;12.10;44.40;;;;;;6131046;23;20394;-89
2021/11/17 14:50:18;;;;;;;13.03;7.87;;;12.10;45.20;;;;;;6137055;23;20482;-87
2021/11/17 14:52:46;;;;;;;8.53;5.50;;;12.10;44.00;;;;;;6131972;23;20450;-86
2021/11/17 14:55:17;;;;;;;8.10;5.60;;;12.10;44.50;;;;;;6130070;23;20418;-86
2021/11/17 14:57:44;;;;;;;9.70;6.80;;;12.00;44.60;;;;;;6131056;23;20506;-87
2021/11/17 15:00:18;;;;;;;7.47;5.47;;;12.30;50.20;;;;;;6132047;23;20958;-87
2021/11/17 15:02:46;;;;;;;9.40;6.00;;;12.30;44.50;;;;;;6132418;23;20916;-86
2021/11/17 15:05:13;;;;;;;9.40;6.50;;;12.10;45.50;;;;;;6128680;23;20435;-87
2021/11/17 15:07:40;;;;;;;14.90;7.87;;;12.20;46.80;;;;;;6128847;23;20419;-87
2021/11/17 15:10:11;;;;;;;14.60;7.23;;;12.30;45.20;;;;;;6130872;23;20431;-87
2021/11/17 15:12:40;;;;;;;19.13;7.70;;;12.10;45.00;;;;;;6133291;23;20422;-87
2021/11/17 15:15:10;;;;;;;9.20;6.50;;;12.00;45.10;;;;;;6132074;23;20397;-86
2021/11/17 15:17:37;;;;;;;8.90;5.73;;;12.10;44.50;;;;;;6131176;23;20469;-87
2021/11/17 15:20:06;;;;;;;13.30;8.50;;;12.20;47.80;;;;;;6129983;23;20448;-86
2021/11/17 15:22:33;;;;;;;16.70;9.47;;;12.10;44.80;;;;;;6130331;23;20443;-86
2021/11/17 15:25:00;;;;;;;10.13;6.70;;;12.00;45.90;;;;;;6130352;23;20496;-86
2021/11/17 15:27:32;;;;;;;8.10;5.70;;;12.30;50.40;;;;;;6131660;23;20407;-86
2021/11/17 15:30:01;;;;;;;11.00;6.10;;;11.70;45.60;;;;;;6131621;23;20500;-86
2021/11/17 15:32:30;;;;;;;9.90;7.20;;;11.60;50.00;;;;;;6131314;23;20442;-88
2021/11/17 15:34:57;;;;;;;10.13;6.60;;;11.50;49.70;;;;;;6133628;23;20473;-86
2021/11/17 15:37:24;;;;;;;10.07;6.00;;;12.00;49.90;;;;;;6130498;23;20418;-87
2021/11/17 15:39:51;;;;;;;8.40;6.03;;;11.90;46.60;;;;;;6130461;23;20532;-86
2021/11/17 15:42:18;;;;;;;7.50;5.53;;;12.00;46.00;;;;;;6130990;23;20923;-86
2021/11/17 15:44:45;;;;;;;7.50;5.37;;;12.00;46.40;;;;;;6133777;23;20481;-87
2021/11/17 15:47:13;;;;;;;9.07;6.30;;;11.60;46.50;;;;;;6133350;23;20442;-87
2021/11/17 15:49:42;;;;;;;9.00;6.37;;;11.60;46.70;;;;;;6133120;23;20955;-86